Terminal Aerodrome Forecast
Issued by NWS

Home | Current Version | Previous Version | Text Only | Print | Product List | Glossary Off
Versions: 1 2 3 4 5 6 7 8 9 10 11 12 13 14 15 16 17 18

516
FTUS45 KGGW 301730
TAFSDY
TAF
KSDY 301730Z 3018/0118 32011KT 3SM -SHSN BR SCT015 OVC035
     FM302200 31008KT 6SM -SHSN SCT015 OVC035=

USA.gov is the U.S. government's official web portal to all federal, state and local government web resources and services.